createdAt,value
2017-08-30T00:00:55.263Z,18.50
2017-08-30T00:03:24.551Z,18.60
2017-08-30T00:05:53.950Z,18.50
2017-08-30T00:08:23.442Z,18.50
2017-08-30T00:10:52.775Z,18.50
2017-08-30T00:13:23.320Z,18.40
2017-08-30T00:15:52.602Z,18.40
2017-08-30T00:18:21.853Z,18.50
2017-08-30T00:20:51.130Z,18.50
2017-08-30T00:23:20.431Z,18.40
2017-08-30T00:26:07.237Z,18.40
2017-08-30T00:31:43.229Z,18.40
2017-08-30T00:34:12.510Z,18.40
2017-08-30T00:36:41.761Z,18.40
2017-08-30T00:39:11.109Z,18.40
2017-08-30T00:41:40.320Z,18.30
2017-08-30T00:44:09.591Z,18.30
2017-08-30T00:46:39.670Z,18.40
2017-08-30T00:49:09.015Z,18.30
2017-08-30T00:51:38.315Z,18.30
2017-08-30T00:54:07.617Z,18.30
2017-08-30T00:56:36.918Z,18.30
2017-08-30T00:59:06.240Z,18.30
2017-08-30T01:01:35.485Z,18.30
2017-08-30T01:04:05.502Z,18.30
2017-08-30T01:06:34.761Z,18.30
2017-08-30T01:09:04.014Z,18.20
2017-08-30T01:11:33.312Z,18.20
2017-08-30T01:14:02.573Z,18.20
2017-08-30T01:16:32.001Z,18.30
2017-08-30T01:19:01.280Z,18.30
2017-08-30T01:21:30.535Z,18.20
2017-08-30T01:23:59.799Z,18.20
2017-08-30T01:26:29.753Z,18.20
2017-08-30T01:28:59.026Z,18.20
2017-08-30T01:31:28.297Z,18.20
2017-08-30T01:33:57.661Z,18.20
2017-08-30T01:36:27.546Z,18.20
2017-08-30T01:38:56.971Z,18.20
2017-08-30T01:41:26.216Z,18.20
2017-08-30T01:43:55.726Z,18.20
2017-08-30T01:46:25.020Z,18.10
2017-08-30T01:48:54.470Z,18.10
2017-08-30T01:51:23.753Z,18.10
2017-08-30T01:53:53.078Z,18.00
2017-08-30T01:56:22.358Z,18.10
2017-08-30T01:58:51.708Z,18.10
2017-08-30T02:01:21.037Z,18.00
2017-08-30T02:03:50.290Z,18.00
2017-08-30T02:06:19.563Z,18.00
2017-08-30T02:08:48.924Z,18.00
2017-08-30T02:11:19.250Z,18.00
2017-08-30T02:13:48.750Z,17.90
2017-08-30T02:16:18.068Z,17.90
2017-08-30T02:18:47.623Z,17.80
2017-08-30T02:21:17.054Z,17.90
2017-08-30T02:23:46.320Z,17.80
2017-08-30T02:26:15.656Z,17.80
2017-08-30T02:28:44.915Z,17.80
2017-08-30T02:31:14.214Z,17.80
2017-08-30T02:33:43.468Z,17.70
2017-08-30T02:36:12.718Z,17.70
2017-08-30T02:38:42.163Z,17.70
2017-08-30T02:41:11.470Z,17.70
2017-08-30T02:43:40.776Z,17.70
2017-08-30T02:46:10.023Z,17.70
2017-08-30T02:48:39.306Z,17.70
2017-08-30T02:51:08.559Z,17.70
2017-08-30T02:53:38.003Z,17.70
2017-08-30T02:56:07.256Z,17.70
2017-08-30T02:58:36.506Z,17.60
2017-08-30T03:01:05.790Z,17.60
2017-08-30T03:03:35.066Z,17.60
2017-08-30T03:06:04.334Z,17.60
2017-08-30T03:08:33.593Z,17.60
2017-08-30T03:11:02.858Z,17.60
2017-08-30T03:13:32.178Z,17.60
2017-08-30T03:16:01.495Z,17.50
2017-08-30T03:18:30.773Z,17.50
2017-08-30T03:21:00.115Z,17.50
2017-08-30T03:23:29.410Z,17.40
2017-08-30T03:25:58.708Z,17.40
2017-08-30T03:28:27.998Z,17.40
2017-08-30T03:30:57.259Z,17.30
2017-08-30T03:33:26.598Z,17.30
2017-08-30T03:35:55.946Z,17.30
2017-08-30T03:38:25.212Z,17.30
2017-08-30T03:40:54.513Z,17.30
2017-08-30T03:43:23.768Z,17.30
2017-08-30T03:45:53.046Z,17.30
2017-08-30T03:48:22.289Z,17.30
2017-08-30T03:50:51.722Z,17.30
2017-08-30T03:53:21.038Z,17.30
2017-08-30T03:55:50.294Z,17.30
2017-08-30T03:58:19.850Z,17.30
2017-08-30T04:00:49.110Z,17.30
2017-08-30T04:03:18.380Z,17.20
2017-08-30T04:05:47.728Z,17.20
2017-08-30T04:08:16.969Z,17.20
2017-08-30T04:10:46.251Z,17.20
2017-08-30T04:13:15.513Z,17.30
2017-08-30T04:15:44.787Z,17.20
2017-08-30T04:18:14.055Z,17.20
2017-08-30T04:20:43.370Z,17.30
2017-08-30T04:23:12.658Z,17.30
2017-08-30T04:25:41.942Z,17.30
2017-08-30T04:28:11.228Z,17.30
2017-08-30T04:30:40.485Z,17.30
2017-08-30T04:33:09.860Z,17.30
2017-08-30T04:35:39.272Z,17.30
2017-08-30T04:38:08.510Z,17.30
2017-08-30T04:40:37.788Z,17.30
2017-08-30T04:43:07.051Z,17.30
2017-08-30T04:45:36.395Z,17.40
2017-08-30T04:48:05.670Z,17.40
2017-08-30T04:50:35.154Z,17.30
2017-08-30T04:53:04.418Z,17.40
2017-08-30T04:55:33.686Z,17.40
2017-08-30T04:58:03.075Z,17.50
2017-08-30T05:00:32.320Z,17.50
2017-08-30T05:03:01.602Z,17.60
2017-08-30T05:05:30.999Z,17.70
2017-08-30T05:08:00.238Z,17.80
2017-08-30T05:10:29.530Z,17.90
2017-08-30T05:12:58.759Z,18.00
2017-08-30T05:15:28.030Z,18.10
2017-08-30T05:17:57.302Z,18.20
2017-08-30T05:20:26.592Z,18.30
2017-08-30T05:22:56.079Z,18.40
2017-08-30T05:25:25.319Z,18.40
2017-08-30T05:27:54.595Z,18.50
2017-08-30T05:30:23.883Z,18.60
2017-08-30T05:32:53.305Z,18.70
2017-08-30T05:35:22.574Z,18.80
2017-08-30T05:37:51.822Z,18.90
2017-08-30T05:40:21.082Z,19.00
2017-08-30T05:42:51.086Z,19.20
2017-08-30T05:45:20.328Z,19.40
2017-08-30T05:47:49.678Z,19.50
2017-08-30T05:50:18.924Z,19.70
2017-08-30T05:52:48.194Z,19.80
2017-08-30T05:55:17.442Z,20.10
2017-08-30T05:57:46.702Z,20.30
2017-08-30T06:00:16.034Z,20.50
2017-08-30T06:02:46.061Z,20.70
2017-08-30T06:05:15.322Z,20.90
2017-08-30T06:07:44.605Z,21.00
2017-08-30T06:10:13.869Z,21.30
2017-08-30T06:12:43.151Z,21.60
2017-08-30T06:15:12.598Z,22.30
2017-08-30T06:17:41.940Z,23.30
2017-08-30T06:20:11.206Z,24.30
2017-08-30T06:22:40.580Z,25.10
2017-08-30T06:25:09.837Z,25.70
2017-08-30T06:27:39.130Z,26.20
2017-08-30T06:30:08.411Z,26.80
2017-08-30T06:32:37.661Z,27.50
2017-08-30T06:35:06.898Z,28.10
2017-08-30T06:37:36.186Z,28.50
2017-08-30T06:40:05.441Z,28.80
2017-08-30T06:42:34.668Z,28.80
2017-08-30T06:45:04.053Z,29.10
2017-08-30T06:47:33.559Z,29.40
2017-08-30T06:50:02.850Z,29.50
2017-08-30T06:52:32.113Z,29.90
2017-08-30T06:55:01.411Z,30.20
2017-08-30T06:57:30.765Z,30.80
2017-08-30T07:00:00.020Z,31.20
2017-08-30T07:02:29.277Z,31.40
2017-08-30T07:04:58.538Z,32.10
2017-08-30T07:07:27.834Z,32.40
2017-08-30T07:09:57.179Z,32.90
2017-08-30T07:12:26.769Z,33.40
2017-08-30T07:14:56.034Z,33.50
2017-08-30T07:17:25.568Z,33.00
2017-08-30T07:19:54.897Z,32.60
2017-08-30T07:22:24.202Z,31.90
2017-08-30T07:24:53.872Z,31.50
2017-08-30T07:27:23.120Z,31.10
2017-08-30T07:29:52.379Z,31.00
2017-08-30T07:32:22.426Z,31.20
2017-08-30T07:34:51.707Z,31.10
2017-08-30T07:37:20.970Z,31.30
2017-08-30T07:39:50.812Z,32.50
2017-08-30T07:42:20.094Z,33.70
2017-08-30T07:44:49.453Z,34.40
2017-08-30T07:47:18.738Z,35.10
2017-08-30T07:49:47.986Z,35.70
2017-08-30T07:52:17.430Z,36.30
2017-08-30T07:54:46.691Z,36.30
2017-08-30T07:57:15.955Z,36.90
2017-08-30T07:59:45.413Z,37.80
2017-08-30T08:02:14.730Z,38.30
2017-08-30T08:04:44.048Z,38.50
2017-08-30T08:07:13.299Z,39.00
2017-08-30T08:09:42.991Z,39.30
2017-08-30T08:12:12.252Z,39.10
2017-08-30T08:14:42.219Z,39.20
2017-08-30T08:17:11.503Z,39.10
2017-08-30T08:19:41.042Z,39.40
2017-08-30T08:22:10.531Z,39.20
2017-08-30T08:24:39.826Z,38.80
2017-08-30T08:27:09.105Z,39.30
2017-08-30T08:29:38.741Z,40.20
2017-08-30T08:32:07.979Z,40.30
2017-08-30T08:34:37.290Z,40.80
2017-08-30T08:37:06.548Z,41.00
2017-08-30T08:39:35.908Z,40.40
2017-08-30T08:42:05.159Z,39.80
2017-08-30T08:44:34.421Z,39.10
2017-08-30T08:47:03.851Z,38.50
2017-08-30T08:49:33.432Z,39.00
2017-08-30T08:52:02.751Z,39.70
2017-08-30T08:54:32.846Z,41.20
2017-08-30T08:57:02.172Z,41.20
2017-08-30T08:59:31.436Z,41.30
2017-08-30T09:02:00.780Z,41.80
2017-08-30T09:04:30.023Z,41.90
2017-08-30T09:06:59.786Z,42.10
2017-08-30T09:09:29.042Z,42.00
2017-08-30T09:11:58.385Z,41.90
2017-08-30T09:14:27.721Z,42.00
2017-08-30T09:16:57.620Z,41.40
2017-08-30T09:19:26.898Z,40.10
2017-08-30T09:21:56.742Z,39.30
2017-08-30T09:24:26.135Z,38.10
2017-08-30T09:26:55.401Z,36.90
2017-08-30T09:29:24.641Z,36.60
2017-08-30T09:31:54.017Z,36.30
2017-08-30T09:34:23.530Z,36.20
2017-08-30T09:36:52.794Z,36.20
2017-08-30T09:39:22.047Z,36.50
2017-08-30T09:41:51.310Z,35.90
2017-08-30T09:44:20.560Z,35.90
2017-08-30T09:46:50.042Z,36.60
2017-08-30T09:49:19.334Z,37.40
2017-08-30T09:51:48.635Z,37.80
2017-08-30T09:54:18.104Z,38.00
2017-08-30T09:56:47.543Z,37.50
2017-08-30T09:59:16.964Z,37.00
2017-08-30T10:01:46.275Z,36.80
2017-08-30T10:04:16.315Z,37.20
2017-08-30T10:06:45.576Z,37.20
2017-08-30T10:09:14.894Z,37.90
2017-08-30T10:11:44.286Z,38.20
2017-08-30T10:14:13.566Z,39.20
2017-08-30T10:16:42.816Z,39.20
2017-08-30T10:19:12.086Z,39.80
2017-08-30T10:21:41.345Z,40.10
2017-08-30T10:24:11.136Z,40.30
2017-08-30T10:26:40.429Z,40.10
2017-08-30T10:29:09.738Z,40.50
2017-08-30T10:31:39.171Z,41.20
2017-08-30T10:34:08.513Z,42.00
2017-08-30T10:36:37.883Z,41.60
2017-08-30T10:39:07.765Z,40.60
2017-08-30T10:41:37.033Z,40.10
2017-08-30T10:44:06.290Z,39.90
2017-08-30T10:46:35.966Z,39.00
2017-08-30T10:49:05.430Z,38.70
2017-08-30T10:51:34.697Z,38.10
2017-08-30T10:54:03.974Z,38.00
2017-08-30T10:56:33.934Z,37.80
2017-08-30T10:59:03.234Z,38.50
2017-08-30T11:01:32.550Z,38.70
2017-08-30T11:04:01.949Z,38.90
2017-08-30T11:06:31.277Z,39.00
2017-08-30T11:09:00.552Z,39.70
2017-08-30T11:11:29.807Z,39.90
2017-08-30T11:13:59.067Z,39.80
2017-08-30T11:16:28.334Z,39.60
2017-08-30T11:18:57.601Z,39.30
2017-08-30T11:21:26.838Z,39.00
2017-08-30T11:23:56.113Z,38.80
2017-08-30T11:26:25.361Z,38.60
2017-08-30T11:28:54.711Z,37.90
2017-08-30T11:31:23.993Z,37.70
2017-08-30T11:33:53.279Z,37.30
2017-08-30T11:36:22.646Z,37.40
2017-08-30T11:38:51.901Z,37.30
2017-08-30T11:41:21.165Z,37.30
2017-08-30T11:43:50.701Z,37.40
2017-08-30T11:46:19.985Z,36.80
2017-08-30T11:48:49.278Z,36.10
2017-08-30T11:51:18.575Z,35.00
2017-08-30T11:53:47.826Z,33.80
2017-08-30T11:56:17.101Z,33.00
2017-08-30T11:58:46.498Z,32.30
2017-08-30T12:01:15.769Z,32.20
2017-08-30T12:03:45.042Z,32.20
2017-08-30T12:06:14.315Z,32.00
2017-08-30T12:08:43.582Z,31.80
2017-08-30T12:11:12.904Z,31.90
2017-08-30T12:13:42.159Z,31.90
2017-08-30T12:16:11.402Z,32.00
2017-08-30T12:18:40.711Z,32.10
2017-08-30T12:21:10.098Z,32.30
2017-08-30T12:23:40.024Z,32.40
2017-08-30T12:26:09.290Z,32.20
2017-08-30T12:28:38.563Z,32.00
2017-08-30T12:31:07.856Z,31.90
2017-08-30T12:33:37.127Z,31.80
2017-08-30T12:36:06.430Z,32.00
2017-08-30T12:41:38.614Z,32.00
2017-08-30T12:44:08.122Z,32.00
2017-08-30T12:46:37.447Z,32.00
2017-08-30T12:49:06.717Z,31.70
2017-08-30T12:51:35.992Z,31.50
2017-08-30T12:54:05.499Z,31.50
2017-08-30T12:56:34.767Z,31.50
2017-08-30T12:59:04.020Z,31.50
2017-08-30T13:01:33.271Z,31.50
2017-08-30T13:04:02.534Z,31.40
2017-08-30T13:06:31.807Z,31.20
2017-08-30T13:09:01.176Z,30.80
2017-08-30T13:11:30.426Z,30.70
2017-08-30T13:13:59.680Z,30.10
2017-08-30T13:16:29.282Z,30.20
2017-08-30T13:18:58.533Z,30.30
2017-08-30T13:21:27.800Z,30.50
2017-08-30T13:23:57.166Z,30.70
2017-08-30T13:26:26.474Z,31.10
2017-08-30T13:28:55.747Z,31.00
2017-08-30T13:31:25.084Z,31.20
2017-08-30T13:33:55.096Z,31.50
2017-08-30T13:36:24.383Z,31.50
2017-08-30T13:38:54.245Z,31.00
2017-08-30T13:41:23.706Z,30.80
2017-08-30T13:43:52.962Z,30.60
2017-08-30T13:46:22.227Z,30.40
2017-08-30T13:48:51.614Z,30.20
2017-08-30T13:51:20.861Z,30.10
2017-08-30T13:53:50.127Z,30.00
2017-08-30T13:56:20.207Z,30.00
2017-08-30T13:58:49.457Z,30.00
2017-08-30T14:01:18.738Z,30.20
2017-08-30T14:03:48.204Z,30.40
2017-08-30T14:06:17.466Z,30.30
2017-08-30T14:08:46.722Z,30.50
2017-08-30T14:11:15.994Z,30.70
2017-08-30T14:13:45.242Z,30.70
2017-08-30T14:16:14.598Z,30.80
2017-08-30T14:18:43.870Z,31.10
2017-08-30T14:21:13.106Z,30.90
2017-08-30T14:23:42.709Z,31.00
2017-08-30T14:26:12.029Z,30.80
2017-08-30T14:28:41.295Z,30.70
2017-08-30T14:31:10.538Z,30.60
2017-08-30T14:33:39.777Z,30.40
2017-08-30T14:36:09.183Z,30.50
2017-08-30T14:38:38.489Z,30.50
2017-08-30T14:41:07.738Z,30.50
2017-08-30T14:43:37.001Z,30.40
2017-08-30T14:46:06.298Z,30.30
2017-08-30T14:48:35.580Z,30.10
2017-08-30T14:51:04.998Z,29.80
2017-08-30T14:53:34.279Z,29.70
2017-08-30T14:56:03.591Z,29.60
2017-08-30T14:58:32.865Z,29.60
2017-08-30T15:01:02.109Z,29.60
2017-08-30T15:03:31.373Z,29.70
2017-08-30T15:06:00.678Z,29.80
2017-08-30T15:08:30.172Z,29.80
2017-08-30T15:10:59.674Z,30.00
2017-08-30T15:13:28.918Z,29.90
2017-08-30T15:15:58.230Z,29.80
2017-08-30T15:18:28.109Z,29.50
2017-08-30T15:20:57.513Z,29.20
2017-08-30T15:23:26.763Z,29.00
2017-08-30T15:25:56.140Z,28.90
2017-08-30T15:28:25.415Z,28.80
2017-08-30T15:30:54.673Z,28.80
2017-08-30T15:33:24.120Z,28.60
2017-08-30T15:35:53.389Z,28.50
2017-08-30T15:38:22.632Z,28.50
2017-08-30T15:40:52.871Z,28.40
2017-08-30T15:43:22.152Z,28.30
2017-08-30T15:45:51.422Z,28.30
2017-08-30T15:48:20.839Z,28.30
2017-08-30T15:50:50.217Z,28.10
2017-08-30T15:53:20.110Z,28.10
2017-08-30T15:55:49.404Z,28.00
2017-08-30T15:58:18.708Z,27.90
2017-08-30T16:00:47.982Z,27.90
2017-08-30T16:03:17.269Z,27.80
2017-08-30T16:05:46.508Z,27.80
2017-08-30T16:08:16.640Z,27.70
2017-08-30T16:10:45.930Z,27.70
2017-08-30T16:13:15.988Z,27.60
2017-08-30T16:15:45.261Z,27.60
2017-08-30T16:18:15.278Z,27.50
2017-08-30T16:20:44.694Z,27.40
2017-08-30T16:23:13.982Z,27.40
2017-08-30T16:25:44.969Z,27.50
2017-08-30T16:28:14.337Z,27.30
2017-08-30T16:30:43.668Z,27.30
2017-08-30T16:33:12.943Z,27.30
2017-08-30T16:35:42.258Z,27.20
2017-08-30T16:38:11.771Z,27.10
2017-08-30T16:40:40.979Z,27.00
2017-08-30T16:43:10.297Z,26.90
2017-08-30T16:45:39.545Z,26.70
2017-08-30T16:48:09.089Z,26.80
2017-08-30T16:50:38.626Z,26.70
2017-08-30T16:53:07.906Z,26.60
2017-08-30T16:55:37.243Z,26.60
2017-08-30T16:58:07.395Z,26.60
2017-08-30T17:00:36.707Z,26.50
2017-08-30T17:03:06.008Z,26.40
2017-08-30T17:05:35.409Z,26.30
2017-08-30T17:08:04.658Z,26.20
2017-08-30T17:10:33.913Z,26.20
2017-08-30T17:13:03.192Z,26.10
2017-08-30T17:15:32.563Z,26.10
2017-08-30T17:18:01.850Z,26.10
2017-08-30T17:20:31.108Z,26.10
2017-08-30T17:23:00.345Z,26.00
2017-08-30T17:25:29.716Z,25.80
2017-08-30T17:27:59.163Z,25.70
2017-08-30T17:30:28.425Z,25.80
2017-08-30T17:32:57.698Z,25.80
2017-08-30T17:35:26.957Z,25.80
2017-08-30T17:37:56.219Z,25.80
2017-08-30T17:40:25.497Z,25.80
2017-08-30T17:42:54.779Z,25.80
2017-08-30T17:45:24.065Z,25.70
2017-08-30T17:47:53.295Z,25.70
2017-08-30T17:50:22.587Z,25.70
2017-08-30T17:52:51.866Z,25.70
2017-08-30T17:55:21.114Z,25.60
2017-08-30T17:57:50.432Z,25.50
2017-08-30T18:00:19.694Z,25.50
2017-08-30T18:02:49.169Z,25.40
2017-08-30T18:05:18.440Z,25.40
2017-08-30T18:07:47.734Z,25.40
2017-08-30T18:10:17.042Z,25.30
2017-08-30T18:12:46.332Z,25.20
2017-08-30T18:15:15.597Z,25.10
2017-08-30T18:17:44.886Z,24.90
2017-08-30T18:20:14.184Z,24.80
2017-08-30T18:22:43.424Z,24.70
2017-08-30T18:25:12.718Z,24.50
2017-08-30T18:27:42.283Z,24.30
2017-08-30T18:30:11.845Z,24.20
2017-08-30T18:32:41.086Z,24.00
2017-08-30T18:35:10.344Z,23.90
2017-08-30T18:37:39.622Z,23.70
2017-08-30T18:40:08.869Z,23.60
2017-08-30T18:42:38.251Z,23.50
2017-08-30T18:45:07.575Z,23.40
2017-08-30T18:47:36.825Z,23.30
2017-08-30T18:50:06.113Z,23.20
2017-08-30T18:52:35.567Z,23.00
2017-08-30T18:55:04.826Z,22.80
2017-08-30T18:57:34.139Z,22.60
2017-08-30T19:00:03.381Z,22.40
2017-08-30T19:02:32.694Z,22.50
2017-08-30T19:05:01.954Z,22.50
2017-08-30T19:07:31.381Z,22.40
2017-08-30T19:10:01.411Z,22.20
2017-08-30T19:12:30.809Z,22.20
2017-08-30T19:15:00.171Z,22.10
2017-08-30T19:17:29.440Z,22.20
2017-08-30T19:19:58.778Z,22.20
2017-08-30T19:22:28.043Z,22.20
2017-08-30T19:24:57.408Z,22.20
2017-08-30T19:27:26.814Z,22.20
2017-08-30T19:29:56.070Z,22.20
2017-08-30T19:32:26.277Z,22.30
2017-08-30T19:34:55.597Z,22.20
2017-08-30T19:37:24.848Z,22.30
2017-08-30T19:39:54.125Z,22.30
2017-08-30T19:42:23.401Z,22.20
2017-08-30T19:44:52.646Z,22.10
2017-08-30T19:47:22.712Z,22.20
2017-08-30T19:49:51.976Z,22.20
2017-08-30T19:52:22.403Z,22.20
2017-08-30T19:54:53.462Z,22.10
2017-08-30T19:57:24.220Z,22.10
2017-08-30T19:59:53.837Z,22.10
2017-08-30T20:02:23.126Z,22.10
2017-08-30T20:04:52.446Z,22.00
2017-08-30T20:07:21.710Z,22.00
2017-08-30T20:09:51.008Z,22.00
2017-08-30T20:12:20.275Z,21.90
2017-08-30T20:14:49.808Z,21.80
2017-08-30T20:17:19.037Z,21.80
2017-08-30T20:19:48.299Z,21.70
2017-08-30T20:22:18.470Z,21.70
2017-08-30T20:24:47.763Z,21.70
2017-08-30T20:27:17.058Z,21.70
2017-08-30T20:29:49.861Z,21.60
2017-08-30T20:32:19.094Z,21.50
2017-08-30T20:34:50.401Z,21.50
2017-08-30T20:37:28.933Z,21.50
2017-08-30T20:39:58.897Z,21.60
2017-08-30T20:42:28.219Z,21.50
2017-08-30T20:44:57.481Z,21.60
2017-08-30T20:47:27.251Z,21.80
2017-08-30T20:49:57.554Z,21.90
2017-08-30T20:52:27.928Z,22.00
2017-08-30T20:54:57.206Z,22.10
2017-08-30T20:57:27.606Z,22.20
2017-08-30T20:59:57.762Z,22.20
2017-08-30T21:02:27.060Z,22.10
2017-08-30T21:04:56.342Z,22.10
2017-08-30T21:07:25.634Z,22.10
2017-08-30T21:09:54.987Z,22.20
2017-08-30T21:12:24.246Z,22.10
2017-08-30T21:14:53.525Z,22.10
2017-08-30T21:17:22.810Z,22.10
2017-08-30T21:19:52.301Z,22.10
2017-08-30T21:22:21.616Z,22.10
2017-08-30T21:24:50.952Z,22.00
2017-08-30T21:27:20.202Z,22.00
2017-08-30T21:29:49.510Z,21.90
2017-08-30T21:32:18.815Z,21.90
2017-08-30T21:34:48.361Z,21.90
2017-08-30T21:37:17.666Z,21.90
2017-08-30T21:39:46.939Z,21.90
2017-08-30T21:42:16.220Z,21.90
2017-08-30T21:44:45.485Z,21.90
2017-08-30T21:47:14.749Z,21.80
2017-08-30T21:49:44.031Z,21.50
2017-08-30T21:52:13.273Z,21.50
2017-08-30T21:54:42.540Z,21.50
2017-08-30T21:57:12.812Z,21.40
2017-08-30T21:59:42.173Z,21.40
2017-08-30T22:02:11.674Z,21.30
2017-08-30T22:04:41.041Z,21.30
2017-08-30T22:07:10.305Z,21.30
2017-08-30T22:09:39.562Z,21.30
2017-08-30T22:12:08.834Z,21.20
2017-08-30T22:14:38.098Z,21.20
2017-08-30T22:17:07.359Z,21.20
2017-08-30T22:19:36.788Z,21.10
2017-08-30T22:22:06.967Z,21.10
2017-08-30T22:24:36.214Z,21.00
2017-08-30T22:27:05.507Z,21.10
2017-08-30T22:29:34.749Z,21.10
2017-08-30T22:32:03.986Z,21.10
2017-08-30T22:34:33.250Z,21.10
2017-08-30T22:37:02.515Z,21.10
2017-08-30T22:39:32.737Z,21.10
2017-08-30T22:42:02.014Z,21.10
2017-08-30T22:44:31.272Z,21.10
2017-08-30T22:47:00.537Z,21.10
2017-08-30T22:49:29.785Z,21.10
2017-08-30T22:51:59.090Z,21.10
2017-08-30T22:54:28.329Z,21.20
2017-08-30T22:56:57.603Z,21.20
2017-08-30T22:59:26.883Z,21.20
2017-08-30T23:01:56.172Z,21.20
2017-08-30T23:04:25.495Z,21.20
2017-08-30T23:06:54.754Z,21.20
2017-08-30T23:09:24.478Z,21.00
2017-08-30T23:11:53.861Z,21.00
2017-08-30T23:14:23.286Z,21.00
2017-08-30T23:16:52.555Z,21.10
2017-08-30T23:19:21.805Z,21.00
2017-08-30T23:21:51.092Z,21.00
2017-08-30T23:24:20.360Z,21.00
2017-08-30T23:26:49.605Z,21.00
2017-08-30T23:29:19.571Z,21.00
2017-08-30T23:31:48.890Z,20.80
2017-08-30T23:34:18.179Z,20.90
2017-08-30T23:36:47.672Z,20.80
2017-08-30T23:39:17.068Z,20.90
2017-08-30T23:41:46.326Z,20.80
2017-08-30T23:44:15.654Z,20.70
2017-08-30T23:46:45.075Z,20.70
2017-08-30T23:49:14.399Z,20.80
2017-08-30T23:51:43.663Z,20.70
2017-08-30T23:54:12.970Z,20.80
2017-08-30T23:56:42.274Z,20.70
2017-08-30T23:59:11.514Z,20.80
